createdAt,value
2023-05-25T00:09:40.413Z,4.60
2023-05-25T00:22:40.408Z,4.40
2023-05-25T00:35:40.502Z,4.80
2023-05-25T00:48:40.434Z,4.30
2023-05-25T01:01:40.611Z,4.00
2023-05-25T01:14:40.677Z,4.30
2023-05-25T01:27:40.957Z,3.90
2023-05-25T01:40:41.138Z,4.20
2023-05-25T01:53:40.621Z,3.80
2023-05-25T02:06:40.876Z,3.90
2023-05-25T02:19:41.120Z,3.60
2023-05-25T02:32:41.136Z,3.50
2023-05-25T02:45:41.116Z,3.40
2023-05-25T02:58:41.198Z,3.40
2023-05-25T03:11:41.259Z,3.60
2023-05-25T03:24:41.230Z,3.30
2023-05-25T03:37:41.289Z,3.00
2023-05-25T03:50:41.301Z,3.30
2023-05-25T04:03:41.432Z,3.30
2023-05-25T04:16:41.317Z,3.20
2023-05-25T04:29:41.314Z,3.00
2023-05-25T04:42:41.336Z,2.90
2023-05-25T04:55:41.273Z,2.90
2023-05-25T05:08:41.204Z,2.90
2023-05-25T05:21:41.226Z,2.70
2023-05-25T05:34:41.263Z,2.70
2023-05-25T05:47:41.419Z,2.70
2023-05-25T06:00:41.439Z,2.30
2023-05-25T06:13:41.413Z,3.00
2023-05-25T06:26:41.426Z,2.90
2023-05-25T06:39:41.535Z,3.25
2023-05-25T06:52:41.555Z,3.00
2023-05-25T07:05:41.538Z,3.20
2023-05-25T07:18:41.614Z,3.00
2023-05-25T07:31:41.474Z,2.80
2023-05-25T07:44:41.396Z,23.10
2023-05-25T07:57:41.566Z,16.50
2023-05-25T08:10:41.691Z,14.70
2023-05-25T08:23:41.647Z,14.70
2023-05-25T08:36:41.566Z,12.50
2023-05-25T08:49:41.619Z,11.40
2023-05-25T09:02:41.372Z,10.80
2023-05-25T09:15:41.501Z,10.10
2023-05-25T09:28:41.270Z,9.70
2023-05-25T09:54:41.710Z,8.30
2023-05-25T10:07:41.340Z,7.90
2023-05-25T10:20:41.351Z,7.50
2023-05-25T10:33:41.305Z,7.10
2023-05-25T10:43:41.396Z,7.40
2023-05-25T10:56:41.333Z,6.40
2023-05-25T11:06:41.343Z,6.30
2023-05-25T11:19:41.344Z,5.90
2023-05-25T11:29:41.345Z,5.40
2023-05-25T11:39:41.338Z,5.30
2023-05-25T11:49:41.337Z,5.50
2023-05-25T11:59:41.317Z,4.80
2023-05-25T12:12:41.395Z,5.00
2023-05-25T12:25:50.148Z,4.40
2023-05-25T12:35:41.640Z,4.40
2023-05-25T12:48:41.477Z,3.90
2023-05-25T13:01:41.501Z,4.00
2023-05-25T13:14:41.472Z,3.80
2023-05-25T13:27:41.444Z,3.90
2023-05-25T13:40:41.495Z,3.60
2023-05-25T13:53:41.521Z,3.40
2023-05-25T14:06:41.535Z,3.60
2023-05-25T14:19:41.588Z,3.30
2023-05-25T14:32:41.728Z,3.30
2023-05-25T14:45:41.641Z,3.20
2023-05-25T14:58:41.625Z,3.20
2023-05-25T15:11:41.830Z,2.80
2023-05-25T15:24:41.645Z,3.10
2023-05-25T15:37:41.668Z,3.60
2023-05-25T15:50:41.752Z,3.20
2023-05-25T16:03:41.785Z,3.40
2023-05-25T16:16:41.800Z,3.50
2023-05-25T16:29:41.800Z,3.80
2023-05-25T16:42:41.828Z,4.10
2023-05-25T16:55:41.806Z,4.10
2023-05-25T17:08:41.846Z,3.90
2023-05-25T17:21:41.827Z,4.30
2023-05-25T17:34:41.889Z,4.00
2023-05-25T17:47:41.923Z,4.50
2023-05-25T18:00:41.986Z,5.00
2023-05-25T18:13:41.985Z,4.60
2023-05-25T18:26:41.976Z,4.00
2023-05-25T18:39:41.991Z,4.10
2023-05-25T18:52:42.022Z,4.20
2023-05-25T19:05:42.040Z,4.20
2023-05-25T19:18:42.093Z,3.80
2023-05-25T19:31:42.119Z,3.80
2023-05-25T19:44:42.066Z,4.00
2023-05-25T19:57:42.096Z,3.70
2023-05-25T20:10:42.097Z,4.40
2023-05-25T20:23:42.222Z,9.20
2023-05-25T20:36:42.280Z,6.50
2023-05-25T20:49:42.338Z,6.30
2023-05-25T21:02:42.370Z,6.30
2023-05-25T21:15:42.476Z,6.50
2023-05-25T21:28:42.426Z,6.50
2023-05-25T21:41:42.413Z,6.30
2023-05-25T21:54:42.465Z,6.10
2023-05-25T22:07:42.457Z,5.50
2023-05-25T22:20:42.525Z,5.40
2023-05-25T22:33:42.506Z,5.00
2023-05-25T22:46:42.580Z,4.70
2023-05-25T22:59:42.505Z,5.00
2023-05-25T23:12:42.545Z,4.30
2023-05-25T23:25:42.607Z,4.60
2023-05-25T23:38:42.525Z,4.10
2023-05-25T23:51:42.536Z,4.25
